MFA weather

Mafia Island Airport
Mafia Island, Pwani Region, Tanzania

Public forecast

Using degrees Celsius for public forecast. Weather courtesy of forecast.io.

METAR (pilot weather report)

Report is more than 6 hours old.

Closest report is Kilwa Masoko Airport, 60.4 nm (111.9 km) S. Retrieved 2018/11/14 12:00 UTC (6 months ago):

HTKI 141200Z 10017KT 9999 FEW028 30/22

TAF (pilot weather forecast)

Forecast is more than 12 hours old.

Closest forecast is Julius Nyerere International Airport, 68.3 nm (126.5 km) NNW. Retrieved 2019/05/20 12:00 UTC (1 day ago):

TAF HTDA 201100Z 2012/2118 16010KT 9999 BKN014 FEW015CB TEMPO 2012/2015 RA BECMG 2104/2106 BKN012 FEW013CB